Airfield :
LOGIN :

Register | Disclaimer

   EN    FR    IT 

 










Legend :    VFR   Marginal VFR   IFR   Intensive IFR   Very Intensive IFR
Visi :
Ceiling :
>= 8 km
>= 3000ft
5 to 8 km
1000 to 3000 ft
1500m to 5 km
500 to 1000 ft
800 to 1500m
200 to 500 ft
< 800m
< 200 ft
Symbols :   Thunderstorms  Fog  Heavy snow  Heavy precipitations  Wind > 20 kt
SIGMETs :     Misc.  Thunderstorms  Icing  Turbulence  Mountain Waves  Volcanic Ashes






- Airport Elevation : 235 ft
- IATA code : BZG


EPBY - Bydgoszcz

CURRENT METAR :
  • 072130Z 27009KT 9999 SCT016 BKN023 05/04 Q1006

EXPIRED METARs :
  • 072100Z 27012KT 9999 -SHRA FEW024 SCT029CB OVC037 06/04 Q1006
  • 072030Z 27015KT 9999 -SHRA SCT011 BKN014CB OVC018 07/05 Q1006
  • 072000Z 25012KT 9999 -SHRA SCT013 BKN017CB 07/05 Q1006
  • 071930Z 25012KT 9999 FEW006 SCT019 BKN038 07/05 Q1006
  • 071900Z 25013KT 9999 FEW018 SCT047 06/05 Q1006

TAF TAF EPBY
Valid from the 07 at 18:00 until the 08 at 18:00 UTC


071730Z 0718/0818 27013KT 9999 SCT020
PROB40
TEMPO 0721/0803 SHRA SCT006 BKN014CB
BECMG 0803/0806 21012KT BKN014
TEMPO 0806/0818 22017G28KT
BECMG 0807/0809 SCT025



MET'MAP, your aeronautical weather chart ! - Copyright ORBIFLY December 2007 - Disclaimer

ORBIFLY MET'MAP TEAM :

Programming & Development : Alexandra Zaïnal
Concept & original design : Baudouin d'Aumeries
Assistance for programming : Marc-Olivier Méhu
Technical & hardware support : Manuel Goepfert

Contact : metmap@orbifly.com




SOURCES & CREDITS :

   NOAA